createdAt,value
2018-10-06T00:02:17.315Z,99.90
2018-10-06T00:04:45.461Z,99.90
2018-10-06T00:07:13.624Z,99.90
2018-10-06T00:09:41.799Z,99.90
2018-10-06T00:12:09.950Z,99.90
2018-10-06T00:14:38.138Z,99.90
2018-10-06T00:17:06.319Z,99.90
2018-10-06T00:19:34.517Z,99.90
2018-10-06T00:22:02.617Z,99.90
2018-10-06T00:24:30.779Z,99.90
2018-10-06T00:26:58.947Z,99.90
2018-10-06T00:29:27.139Z,99.90
2018-10-06T00:31:55.278Z,99.90
2018-10-06T00:34:23.431Z,99.90
2018-10-06T00:36:51.587Z,99.90
2018-10-06T00:39:19.753Z,99.90
2018-10-06T00:41:47.964Z,99.90
2018-10-06T00:44:16.101Z,99.90
2018-10-06T00:46:44.268Z,99.90
2018-10-06T00:49:12.428Z,99.90
2018-10-06T00:51:40.675Z,99.90
2018-10-06T00:54:08.837Z,99.90
2018-10-06T00:56:36.986Z,99.90
2018-10-06T00:59:05.242Z,99.90
2018-10-06T01:01:33.419Z,99.90
2018-10-06T01:04:01.632Z,99.90
2018-10-06T01:06:29.866Z,99.90
2018-10-06T01:08:58.058Z,99.90
2018-10-06T01:11:26.211Z,99.90
2018-10-06T01:13:54.735Z,99.90
2018-10-06T01:16:22.878Z,99.90
2018-10-06T01:18:51.136Z,99.90
2018-10-06T01:21:19.299Z,99.90
2018-10-06T01:23:47.461Z,99.90
2018-10-06T01:26:15.601Z,99.90
2018-10-06T01:28:43.770Z,99.90
2018-10-06T01:31:11.986Z,99.90
2018-10-06T01:33:40.330Z,99.90
2018-10-06T01:36:08.482Z,99.90
2018-10-06T01:38:36.642Z,99.90
2018-10-06T01:41:04.813Z,99.90
2018-10-06T01:43:33.037Z,99.90
2018-10-06T01:46:01.199Z,99.90
2018-10-06T01:48:29.346Z,99.90
2018-10-06T01:50:57.539Z,99.90
2018-10-06T01:53:25.685Z,99.90
2018-10-06T01:55:53.849Z,99.90
2018-10-06T01:58:22.022Z,99.90
2018-10-06T02:00:50.182Z,99.90
2018-10-06T02:03:18.366Z,99.90
2018-10-06T02:05:46.524Z,99.90
2018-10-06T02:08:14.693Z,99.90
2018-10-06T02:10:42.857Z,99.90
2018-10-06T02:13:11.008Z,99.90
2018-10-06T02:15:39.207Z,99.90
2018-10-06T02:18:07.341Z,99.90
2018-10-06T02:20:35.571Z,99.90
2018-10-06T02:23:03.711Z,99.90
2018-10-06T02:25:31.870Z,99.90
2018-10-06T02:28:00.527Z,99.90
2018-10-06T02:30:28.678Z,99.90
2018-10-06T02:32:56.841Z,99.90
2018-10-06T02:35:24.997Z,99.90
2018-10-06T02:37:53.346Z,99.90
2018-10-06T02:40:21.574Z,99.90
2018-10-06T02:42:49.719Z,99.90
2018-10-06T02:45:17.884Z,99.90
2018-10-06T02:47:46.039Z,99.90
2018-10-06T02:50:14.198Z,99.90
2018-10-06T02:52:42.393Z,99.90
2018-10-06T02:55:10.545Z,99.90
2018-10-06T02:57:38.710Z,99.90
2018-10-06T03:00:06.868Z,99.90
2018-10-06T03:02:34.993Z,99.90
2018-10-06T03:05:03.181Z,99.90
2018-10-06T03:07:31.322Z,99.90
2018-10-06T03:09:59.502Z,99.90
2018-10-06T03:12:27.650Z,99.90
2018-10-06T03:14:55.833Z,99.90
2018-10-06T03:17:23.985Z,99.90
2018-10-06T03:19:52.125Z,99.90
2018-10-06T03:22:20.264Z,99.90
2018-10-06T03:24:48.447Z,99.90
2018-10-06T03:27:16.591Z,99.90
2018-10-06T03:29:44.798Z,99.90
2018-10-06T03:32:12.962Z,99.90
2018-10-06T03:34:41.161Z,99.90
2018-10-06T03:37:09.443Z,99.90
2018-10-06T03:39:37.644Z,99.90
2018-10-06T03:42:05.900Z,99.90
2018-10-06T03:44:34.120Z,99.90
2018-10-06T03:47:02.247Z,99.90
2018-10-06T03:49:30.382Z,99.90
2018-10-06T03:51:58.525Z,99.90
2018-10-06T03:54:26.684Z,99.90
2018-10-06T03:56:54.819Z,99.90
2018-10-06T03:59:22.977Z,99.90
2018-10-06T04:01:51.139Z,99.90
2018-10-06T04:04:19.329Z,99.90
2018-10-06T04:06:47.495Z,99.90
2018-10-06T04:09:15.640Z,99.90
2018-10-06T04:11:43.798Z,99.90
2018-10-06T04:14:11.954Z,99.90
2018-10-06T04:16:40.110Z,99.90
2018-10-06T04:19:08.236Z,99.90
2018-10-06T04:21:41.461Z,99.90
2018-10-06T04:24:09.617Z,99.90
2018-10-06T04:26:37.778Z,99.90
2018-10-06T04:29:05.955Z,99.90
2018-10-06T04:31:34.176Z,99.90
2018-10-06T04:34:02.355Z,99.90
2018-10-06T04:36:30.500Z,99.90
2018-10-06T04:38:58.757Z,99.90
2018-10-06T04:41:27.426Z,99.90
2018-10-06T04:43:55.594Z,99.90
2018-10-06T04:46:23.800Z,99.90
2018-10-06T04:48:51.989Z,99.90
2018-10-06T04:51:20.177Z,99.90
2018-10-06T04:53:48.375Z,99.90
2018-10-06T04:56:16.850Z,99.90
2018-10-06T04:58:45.069Z,99.90
2018-10-06T05:01:13.330Z,99.90
2018-10-06T05:03:41.533Z,99.90
2018-10-06T05:06:09.738Z,99.90
2018-10-06T05:08:38.132Z,99.90
2018-10-06T05:11:06.337Z,99.90
2018-10-06T05:13:34.541Z,99.90
2018-10-06T05:16:02.735Z,99.90
2018-10-06T05:18:30.926Z,99.90
2018-10-06T05:20:59.161Z,99.90
2018-10-06T05:23:27.397Z,99.90
2018-10-06T05:25:55.549Z,99.90
2018-10-06T05:28:23.715Z,99.90
2018-10-06T05:30:51.898Z,99.90
2018-10-06T05:33:20.108Z,99.90
2018-10-06T05:35:48.342Z,99.90
2018-10-06T05:38:16.557Z,99.90
2018-10-06T05:40:44.778Z,99.90
2018-10-06T05:43:12.960Z,99.90
2018-10-06T05:45:41.149Z,99.90
2018-10-06T05:48:09.674Z,99.90
2018-10-06T05:50:37.907Z,99.90
2018-10-06T05:53:06.119Z,99.90
2018-10-06T05:55:34.329Z,99.90
2018-10-06T05:58:02.538Z,99.90
2018-10-06T06:00:31.238Z,99.90
2018-10-06T06:02:59.450Z,99.90
2018-10-06T06:05:27.649Z,99.90
2018-10-06T06:07:55.851Z,99.90
2018-10-06T06:10:24.034Z,99.90
2018-10-06T06:12:52.221Z,99.90
2018-10-06T06:15:20.370Z,99.90
2018-10-06T06:17:48.557Z,99.90
2018-10-06T06:20:16.746Z,99.90
2018-10-06T06:22:44.963Z,99.90
2018-10-06T06:25:13.130Z,99.90
2018-10-06T06:27:41.314Z,99.90
2018-10-06T06:30:09.488Z,99.90
2018-10-06T06:32:37.647Z,99.90
2018-10-06T06:35:05.770Z,99.90
2018-10-06T06:37:33.966Z,99.90
2018-10-06T06:40:02.101Z,99.90
2018-10-06T06:42:30.289Z,99.90
2018-10-06T06:44:58.587Z,99.90
2018-10-06T06:47:26.759Z,99.90
2018-10-06T06:49:55.011Z,99.90
2018-10-06T06:52:23.185Z,99.90
2018-10-06T06:54:51.404Z,99.90
2018-10-06T06:57:19.538Z,99.90
2018-10-06T06:59:47.693Z,99.90
2018-10-06T07:02:15.890Z,99.90
2018-10-06T07:04:44.044Z,99.90
2018-10-06T07:07:12.251Z,99.90
2018-10-06T07:09:40.499Z,99.90
2018-10-06T07:12:08.686Z,99.90
2018-10-06T07:14:36.875Z,99.90
2018-10-06T07:17:05.099Z,99.90
2018-10-06T07:19:33.288Z,99.90
2018-10-06T07:22:01.462Z,99.90
2018-10-06T07:24:29.677Z,99.90
2018-10-06T07:26:57.804Z,99.90
2018-10-06T07:29:25.987Z,99.90
2018-10-06T07:31:54.178Z,99.90
2018-10-06T07:34:22.367Z,99.90
2018-10-06T07:36:50.621Z,99.90
2018-10-06T07:39:18.799Z,99.90
2018-10-06T07:41:46.977Z,99.90
2018-10-06T07:44:15.142Z,99.90
2018-10-06T07:46:43.304Z,99.90
2018-10-06T07:49:11.487Z,99.90
2018-10-06T07:51:39.673Z,99.90
2018-10-06T07:54:07.863Z,99.90
2018-10-06T07:56:36.085Z,99.90
2018-10-06T07:59:04.351Z,99.90
2018-10-06T08:01:32.679Z,99.90
2018-10-06T08:04:01.151Z,99.90
2018-10-06T08:06:30.172Z,99.90
2018-10-06T08:08:58.257Z,99.90
2018-10-06T08:11:26.484Z,99.90
2018-10-06T08:13:54.654Z,99.90
2018-10-06T08:16:22.837Z,99.90
2018-10-06T08:18:51.566Z,99.90
2018-10-06T08:21:19.754Z,99.90
2018-10-06T08:23:47.975Z,99.90
2018-10-06T08:26:16.177Z,99.90
2018-10-06T08:28:44.403Z,99.90
2018-10-06T08:31:12.594Z,99.90
2018-10-06T08:33:40.782Z,99.90
2018-10-06T08:36:08.974Z,99.90
2018-10-06T08:38:37.145Z,99.90
2018-10-06T08:41:05.341Z,99.90
2018-10-06T08:43:33.569Z,99.90
2018-10-06T08:46:01.766Z,99.90
2018-10-06T08:48:30.045Z,99.90
2018-10-06T08:50:58.210Z,99.90
2018-10-06T08:53:26.422Z,99.90
2018-10-06T08:55:54.671Z,99.90
2018-10-06T08:58:22.874Z,99.90
2018-10-06T09:00:51.049Z,99.90
2018-10-06T09:03:19.206Z,99.90
2018-10-06T09:05:47.383Z,99.90
2018-10-06T09:08:15.582Z,99.90
2018-10-06T09:10:43.768Z,99.90
2018-10-06T09:13:11.943Z,99.90
2018-10-06T09:15:40.105Z,99.90
2018-10-06T09:18:08.300Z,99.90
2018-10-06T09:20:36.553Z,99.90
2018-10-06T09:23:04.696Z,99.90
2018-10-06T09:25:32.847Z,99.90
2018-10-06T09:28:00.994Z,99.90
2018-10-06T09:30:29.178Z,99.90
2018-10-06T09:32:57.363Z,99.90
2018-10-06T09:35:25.534Z,99.90
2018-10-06T09:37:53.747Z,99.90
2018-10-06T09:40:21.946Z,99.90
2018-10-06T09:42:50.243Z,99.50
2018-10-06T09:45:18.258Z,99.10
2018-10-06T09:47:46.433Z,99.10
2018-10-06T09:50:14.566Z,98.40
2018-10-06T09:52:42.754Z,98.40
2018-10-06T09:55:10.931Z,98.50
2018-10-06T09:57:39.090Z,97.80
2018-10-06T10:00:07.654Z,97.30
2018-10-06T10:02:41.359Z,96.90
2018-10-06T10:05:14.870Z,96.80
2018-10-06T10:07:43.010Z,97.00
2018-10-06T10:10:11.165Z,97.20
2018-10-06T10:12:39.463Z,96.50
2018-10-06T10:15:07.516Z,96.40
2018-10-06T10:17:35.820Z,96.40
2018-10-06T10:20:03.873Z,96.50
2018-10-06T10:22:32.091Z,96.30
2018-10-06T10:25:00.198Z,96.00
2018-10-06T10:27:28.395Z,95.70
2018-10-06T10:29:56.620Z,95.70
2018-10-06T10:32:24.778Z,95.90
2018-10-06T10:34:52.981Z,95.40
2018-10-06T10:37:21.195Z,95.20
2018-10-06T10:39:49.375Z,94.50
2018-10-06T10:42:17.491Z,94.30
2018-10-06T10:44:45.634Z,93.80
2018-10-06T10:47:14.131Z,93.10
2018-10-06T10:49:49.014Z,92.70
2018-10-06T10:52:17.206Z,91.20
2018-10-06T10:54:45.399Z,90.90
2018-10-06T10:57:13.937Z,90.50
2018-10-06T10:59:42.187Z,90.70
2018-10-06T11:02:10.230Z,90.80
2018-10-06T11:04:38.408Z,90.80
2018-10-06T11:07:06.584Z,91.00
2018-10-06T11:09:34.758Z,91.50
2018-10-06T11:12:02.931Z,92.10
2018-10-06T11:14:31.266Z,91.50
2018-10-06T11:16:59.432Z,91.00
2018-10-06T11:19:27.609Z,91.10
2018-10-06T11:21:55.799Z,90.80
2018-10-06T11:24:23.994Z,90.70
2018-10-06T11:26:52.206Z,90.90
2018-10-06T11:29:20.407Z,91.00
2018-10-06T11:31:48.627Z,90.20
2018-10-06T11:34:16.806Z,89.90
2018-10-06T11:36:44.973Z,90.30
2018-10-06T11:39:13.139Z,90.30
2018-10-06T11:41:47.837Z,90.00
2018-10-06T11:44:16.055Z,90.20
2018-10-06T11:46:44.237Z,90.20
2018-10-06T11:49:12.447Z,86.40
2018-10-06T11:51:40.666Z,85.70
2018-10-06T11:54:08.810Z,81.90
2018-10-06T11:56:37.013Z,83.00
2018-10-06T11:59:05.270Z,82.90
2018-10-06T12:01:33.491Z,82.20
2018-10-06T12:04:01.669Z,79.60
2018-10-06T12:06:29.866Z,79.80
2018-10-06T12:08:58.070Z,80.40
2018-10-06T12:11:26.259Z,78.50
2018-10-06T12:13:54.446Z,79.30
2018-10-06T12:16:22.651Z,78.90
2018-10-06T12:18:50.845Z,76.50
2018-10-06T12:21:19.019Z,76.30
2018-10-06T12:23:47.206Z,75.60
2018-10-06T12:26:15.399Z,75.90
2018-10-06T12:28:43.619Z,75.80
2018-10-06T12:31:11.834Z,75.10
2018-10-06T12:33:40.010Z,74.90
2018-10-06T12:36:08.271Z,75.30
2018-10-06T12:38:36.494Z,74.40
2018-10-06T12:41:04.694Z,73.90
2018-10-06T12:43:32.842Z,75.10
2018-10-06T12:46:01.012Z,75.40
2018-10-06T12:48:29.170Z,74.20
2018-10-06T12:50:57.411Z,73.90
2018-10-06T12:53:25.644Z,73.30
2018-10-06T12:55:53.856Z,73.00
2018-10-06T12:58:22.042Z,71.90
2018-10-06T13:00:50.228Z,74.20
2018-10-06T13:03:18.384Z,72.60
2018-10-06T13:05:46.562Z,73.50
2018-10-06T13:08:14.762Z,73.60
2018-10-06T13:10:42.959Z,73.60
2018-10-06T13:13:11.118Z,73.90
2018-10-06T13:15:39.294Z,74.50
2018-10-06T13:18:07.484Z,75.00
2018-10-06T13:20:35.722Z,75.30
2018-10-06T13:23:03.892Z,75.10
2018-10-06T13:25:32.094Z,75.50
2018-10-06T13:28:00.287Z,75.60
2018-10-06T13:30:28.513Z,76.20
2018-10-06T13:32:56.689Z,76.30
2018-10-06T13:35:24.866Z,77.10
2018-10-06T13:37:53.156Z,77.70
2018-10-06T13:40:21.340Z,78.30
2018-10-06T13:42:50.129Z,77.90
2018-10-06T13:45:18.282Z,78.10
2018-10-06T13:47:46.425Z,78.30
2018-10-06T13:50:14.590Z,78.70
2018-10-06T13:52:43.100Z,78.70
2018-10-06T13:55:11.517Z,78.80
2018-10-06T13:57:39.667Z,79.00
2018-10-06T14:00:07.844Z,79.30
2018-10-06T14:02:36.005Z,79.30
2018-10-06T14:05:04.188Z,79.40
2018-10-06T14:07:32.451Z,79.80
2018-10-06T14:10:00.631Z,80.10
2018-10-06T14:12:28.805Z,80.60
2018-10-06T14:14:56.961Z,80.50
2018-10-06T14:17:25.106Z,80.20
2018-10-06T14:19:53.289Z,80.60
2018-10-06T14:22:21.410Z,80.90
2018-10-06T14:24:49.577Z,81.30
2018-10-06T14:27:17.710Z,81.50
2018-10-06T14:29:45.868Z,81.70
2018-10-06T14:32:14.015Z,81.70
2018-10-06T14:34:42.212Z,81.90
2018-10-06T14:37:10.422Z,81.90
2018-10-06T14:39:38.586Z,81.80
2018-10-06T14:42:07.104Z,82.50
2018-10-06T14:44:35.277Z,82.70
2018-10-06T14:47:03.471Z,82.70
2018-10-06T14:49:31.585Z,82.70
2018-10-06T14:51:59.751Z,82.70
2018-10-06T14:54:27.911Z,83.30
2018-10-06T14:56:56.152Z,83.30
2018-10-06T14:59:24.369Z,83.50
2018-10-06T15:01:52.525Z,82.80
2018-10-06T15:04:20.650Z,82.60
2018-10-06T15:06:48.848Z,82.90
2018-10-06T15:09:16.994Z,83.00
2018-10-06T15:11:45.178Z,83.00
2018-10-06T15:14:13.313Z,81.50
2018-10-06T15:16:41.498Z,82.10
2018-10-06T15:19:09.671Z,81.20
2018-10-06T15:21:37.882Z,81.30
2018-10-06T15:24:05.997Z,81.00
2018-10-06T15:26:34.145Z,80.40
2018-10-06T15:29:02.259Z,80.90
2018-10-06T15:31:30.417Z,81.90
2018-10-06T15:33:58.546Z,81.90
2018-10-06T15:36:26.756Z,81.60
2018-10-06T15:38:54.908Z,81.60
2018-10-06T15:41:23.054Z,81.70
2018-10-06T15:43:51.214Z,80.50
2018-10-06T15:46:19.364Z,80.50
2018-10-06T15:48:47.538Z,80.60
2018-10-06T15:51:15.718Z,81.10
2018-10-06T15:53:43.897Z,81.60
2018-10-06T15:56:12.110Z,81.40
2018-10-06T15:58:40.374Z,80.50
2018-10-06T16:01:08.594Z,81.40
2018-10-06T16:03:36.807Z,81.10
2018-10-06T16:06:04.979Z,82.10
2018-10-06T16:08:33.152Z,82.10
2018-10-06T16:11:01.484Z,82.30
2018-10-06T16:13:29.672Z,82.80
2018-10-06T16:15:57.914Z,83.00
2018-10-06T16:18:26.114Z,83.20
2018-10-06T16:20:54.328Z,83.70
2018-10-06T16:23:22.529Z,84.60
2018-10-06T16:25:51.558Z,85.50
2018-10-06T16:28:19.882Z,86.10
2018-10-06T16:30:48.220Z,86.20
2018-10-06T16:33:16.493Z,86.20
2018-10-06T16:35:44.854Z,86.90
2018-10-06T16:38:13.232Z,86.90
2018-10-06T16:40:41.651Z,86.40
2018-10-06T16:43:09.939Z,87.20
2018-10-06T16:45:38.611Z,87.00
2018-10-06T16:48:07.007Z,87.50
2018-10-06T16:53:23.703Z,89.30
2018-10-06T16:55:52.171Z,89.40
2018-10-06T16:58:20.542Z,90.10
2018-10-06T17:00:49.990Z,90.60
2018-10-06T17:03:18.639Z,90.80
2018-10-06T17:05:47.157Z,91.20
2018-10-06T17:08:15.432Z,91.20
2018-10-06T17:10:43.739Z,91.30
2018-10-06T17:13:12.161Z,91.40
2018-10-06T17:15:40.490Z,91.90
2018-10-06T17:20:59.023Z,92.30
2018-10-06T17:23:27.388Z,92.80
2018-10-06T17:25:55.761Z,92.90
2018-10-06T17:28:24.201Z,92.60
2018-10-06T17:30:53.847Z,92.30
2018-10-06T17:33:22.487Z,93.00
2018-10-06T17:35:50.872Z,92.80
2018-10-06T17:38:19.340Z,93.00
2018-10-06T17:40:47.676Z,93.30
2018-10-06T17:43:15.963Z,93.30
2018-10-06T17:45:44.347Z,93.70
2018-10-06T17:48:12.533Z,93.70
2018-10-06T17:50:40.909Z,93.50
2018-10-06T17:53:09.149Z,93.80
2018-10-06T17:55:37.363Z,94.00
2018-10-06T17:58:05.821Z,94.50
2018-10-06T18:00:34.062Z,95.00
2018-10-06T18:03:02.295Z,95.40
2018-10-06T18:05:30.626Z,95.70
2018-10-06T18:07:58.846Z,96.00
2018-10-06T18:10:27.140Z,96.10
2018-10-06T18:12:55.448Z,96.20
2018-10-06T18:15:23.759Z,96.30
2018-10-06T18:17:52.160Z,96.30
2018-10-06T18:20:20.548Z,96.40
2018-10-06T18:22:48.719Z,96.50
2018-10-06T18:25:18.988Z,96.60
2018-10-06T18:27:47.704Z,96.70
2018-10-06T18:30:16.542Z,96.90
2018-10-06T18:32:44.740Z,96.70
2018-10-06T18:35:13.251Z,96.90
2018-10-06T18:37:41.856Z,97.10
2018-10-06T18:40:11.302Z,97.00
2018-10-06T18:42:39.829Z,97.30
2018-10-06T18:45:09.040Z,97.30
2018-10-06T18:47:37.430Z,97.30
2018-10-06T18:50:05.753Z,97.40
2018-10-06T19:15:56.007Z,99.40
2018-10-06T19:18:24.425Z,99.60
2018-10-06T19:49:31.735Z,99.90
2018-10-06T19:52:00.194Z,99.90
2018-10-06T19:54:28.574Z,99.90
2018-10-06T19:56:56.945Z,99.90
2018-10-06T19:59:25.415Z,99.90
2018-10-06T20:01:53.647Z,99.90
2018-10-06T20:04:22.056Z,99.90
2018-10-06T20:06:50.095Z,99.90
2018-10-06T20:09:18.348Z,99.90
2018-10-06T20:11:46.588Z,99.90
2018-10-06T20:14:14.816Z,99.90
2018-10-06T20:16:42.992Z,99.90
2018-10-06T20:19:11.327Z,99.90
2018-10-06T20:21:39.479Z,99.90
2018-10-06T20:24:07.739Z,99.90
2018-10-06T20:26:35.982Z,99.90
2018-10-06T20:29:04.155Z,99.90
2018-10-06T20:31:32.447Z,99.90
2018-10-06T20:34:00.680Z,99.90
2018-10-06T20:36:28.887Z,99.90
2018-10-06T20:38:57.100Z,99.90
2018-10-06T20:41:25.278Z,99.90
2018-10-06T20:43:53.553Z,99.90
2018-10-06T20:46:21.791Z,99.90
2018-10-06T20:48:49.950Z,99.90
2018-10-06T20:51:18.131Z,99.90
2018-10-06T20:53:46.400Z,99.90
2018-10-06T20:56:14.670Z,99.90
2018-10-06T20:58:42.827Z,99.90
2018-10-06T21:01:11.101Z,99.90
2018-10-06T21:03:39.321Z,99.90
2018-10-06T21:06:07.515Z,99.90
2018-10-06T21:08:35.899Z,99.90
2018-10-06T21:11:04.132Z,99.90
2018-10-06T21:13:32.354Z,99.90
2018-10-06T21:16:00.561Z,99.90
2018-10-06T21:18:28.950Z,99.90
2018-10-06T21:20:57.070Z,99.90
2018-10-06T21:23:25.335Z,99.90
2018-10-06T21:25:53.622Z,99.90
2018-10-06T21:28:21.812Z,99.90
2018-10-06T21:30:50.046Z,99.90
2018-10-06T21:33:18.215Z,99.90
2018-10-06T21:35:46.383Z,99.90
2018-10-06T21:38:14.558Z,99.90
2018-10-06T21:40:42.744Z,99.90
2018-10-06T21:43:10.944Z,99.90
2018-10-06T21:45:39.134Z,99.90
2018-10-06T21:48:07.326Z,99.90
2018-10-06T21:50:35.588Z,99.90
2018-10-06T21:53:03.755Z,99.90
2018-10-06T21:55:32.058Z,99.90
2018-10-06T21:58:00.262Z,99.90
2018-10-06T22:00:28.544Z,99.90
2018-10-06T22:02:56.720Z,99.90
2018-10-06T22:05:24.867Z,99.90
2018-10-06T22:07:53.069Z,99.90
2018-10-06T22:10:21.267Z,99.90
2018-10-06T22:12:49.438Z,99.90
2018-10-06T22:15:17.636Z,99.90
2018-10-06T22:17:45.782Z,99.90
2018-10-06T22:20:14.249Z,99.90
2018-10-06T22:22:42.434Z,99.90
2018-10-06T22:25:10.632Z,99.90
2018-10-06T22:27:38.798Z,99.90
2018-10-06T22:30:07.851Z,99.90
2018-10-06T22:32:36.014Z,99.90
2018-10-06T22:35:04.211Z,99.90
2018-10-06T22:37:32.696Z,99.90
2018-10-06T22:40:00.835Z,99.90
2018-10-06T22:42:28.992Z,99.90
2018-10-06T22:44:57.158Z,99.90
2018-10-06T22:47:25.326Z,99.90
2018-10-06T22:49:53.502Z,99.90
2018-10-06T22:52:21.663Z,99.90
2018-10-06T22:54:49.823Z,99.90
2018-10-06T22:57:18.008Z,99.90
2018-10-06T22:59:46.258Z,99.90
2018-10-06T23:02:14.440Z,99.90
2018-10-06T23:04:42.627Z,99.90
2018-10-06T23:07:10.762Z,99.90
2018-10-06T23:09:38.958Z,99.90
2018-10-06T23:12:07.119Z,99.90
2018-10-06T23:14:35.284Z,99.90
2018-10-06T23:17:03.454Z,99.90
2018-10-06T23:19:31.611Z,99.90
2018-10-06T23:21:59.808Z,99.90
2018-10-06T23:24:27.994Z,99.90
2018-10-06T23:26:56.189Z,99.90
2018-10-06T23:29:24.391Z,99.90
2018-10-06T23:31:52.548Z,99.90
2018-10-06T23:34:20.682Z,99.90
2018-10-06T23:36:48.832Z,99.90
2018-10-06T23:39:16.980Z,99.90
2018-10-06T23:41:45.127Z,99.90
2018-10-06T23:44:19.856Z,99.90
2018-10-06T23:46:47.995Z,99.90
2018-10-06T23:49:16.149Z,99.90
2018-10-06T23:51:44.297Z,99.90
2018-10-06T23:54:12.447Z,99.90
2018-10-06T23:56:40.623Z,99.90
2018-10-06T23:59:08.770Z,99.90
